createdAt,value
2018-02-19T00:00:34.685Z,88.1
2018-02-19T00:01:36.985Z,87.4
2018-02-19T00:02:38.812Z,87.5
2018-02-19T00:03:41.161Z,87.7
2018-02-19T00:04:43.465Z,87.0
2018-02-19T00:05:45.293Z,87.4
2018-02-19T00:06:47.076Z,88.0
2018-02-19T00:07:49.004Z,87.8
2018-02-19T00:08:51.426Z,87.6
2018-02-19T00:09:53.670Z,87.8
2018-02-19T00:10:55.984Z,87.8
2018-02-19T00:11:58.012Z,87.6
2018-02-19T00:13:00.259Z,87.8
2018-02-19T00:14:02.537Z,87.8
2018-02-19T00:15:04.906Z,88.6
2018-02-19T00:16:07.234Z,88.1
2018-02-19T00:17:09.432Z,87.7
2018-02-19T00:18:11.640Z,87.9
2018-02-19T00:19:13.587Z,87.6
2018-02-19T00:20:15.435Z,87.7
2018-02-19T00:21:17.846Z,87.9
2018-02-19T00:22:19.677Z,87.8
2018-02-19T00:23:22.097Z,88.2
2018-02-19T00:24:24.410Z,88.3
2018-02-19T00:25:26.588Z,87.7
2018-02-19T00:26:28.255Z,88.2
2018-02-19T00:27:30.116Z,88.0
2018-02-19T00:28:32.146Z,88.5
2018-02-19T00:29:33.966Z,88.3
2018-02-19T00:30:35.927Z,88.4
2018-02-19T00:31:38.321Z,88.7
2018-02-19T00:32:40.524Z,88.6
2018-02-19T00:33:42.261Z,88.8
2018-02-19T00:34:44.034Z,89.0
2018-02-19T00:35:45.945Z,88.9
2018-02-19T00:36:48.251Z,89.0
2018-02-19T00:37:50.571Z,89.1
2018-02-19T00:38:52.552Z,89.2
2018-02-19T00:39:54.845Z,89.2
2018-02-19T00:40:57.109Z,89.4
2018-02-19T00:41:59.444Z,89.4
2018-02-19T00:43:01.709Z,89.2
2018-02-19T00:44:03.541Z,88.9
2018-02-19T00:45:05.878Z,89.3
2018-02-19T00:46:08.180Z,89.7
2018-02-19T00:47:10.034Z,89.5
2018-02-19T00:48:11.851Z,89.8
2018-02-19T00:49:14.150Z,89.7
2018-02-19T00:50:16.276Z,89.6
2018-02-19T00:51:18.221Z,89.3
2018-02-19T00:52:20.504Z,89.5
2018-02-19T00:53:22.450Z,89.3
2018-02-19T00:54:24.819Z,89.1
2018-02-19T00:55:27.035Z,89.2
2018-02-19T00:56:28.934Z,89.3
2018-02-19T00:57:31.215Z,89.0
2018-02-19T00:58:33.133Z,88.7
2018-02-19T00:59:35.027Z,88.8
2018-02-19T01:00:36.928Z,89.2
2018-02-19T01:01:38.855Z,89.1
2018-02-19T01:02:41.250Z,89.1
2018-02-19T01:03:43.073Z,88.9
2018-02-19T01:04:44.954Z,89.1
2018-02-19T01:05:46.900Z,89.3
2018-02-19T01:06:49.091Z,89.1
2018-02-19T01:07:50.978Z,89.5
2018-02-19T01:08:52.766Z,89.6
2018-02-19T01:09:54.621Z,89.0
2018-02-19T01:10:56.387Z,89.4
2018-02-19T01:11:58.242Z,89.8
2018-02-19T01:12:59.979Z,89.9
2018-02-19T01:14:01.855Z,89.1
2018-02-19T01:15:03.606Z,89.2
2018-02-19T01:16:05.550Z,89.3
2018-02-19T01:17:07.390Z,88.7
2018-02-19T01:18:09.755Z,89.4
2018-02-19T01:19:11.654Z,89.4
2018-02-19T01:20:13.356Z,89.4
2018-02-19T01:21:15.697Z,89.5
2018-02-19T01:22:17.682Z,89.5
2018-02-19T01:23:20.042Z,89.2
2018-02-19T01:24:22.212Z,89.6
2018-02-19T01:25:24.129Z,89.9
2018-02-19T01:26:25.945Z,89.8
2018-02-19T01:27:27.742Z,89.2
2018-02-19T01:28:29.626Z,89.8
2018-02-19T01:29:31.366Z,89.8
2018-02-19T01:30:33.704Z,90.3
2018-02-19T01:31:36.081Z,89.9
2018-02-19T01:32:38.175Z,90.5
2018-02-19T01:33:40.424Z,91.1
2018-02-19T01:34:42.283Z,90.3
2018-02-19T01:35:44.014Z,90.3
2018-02-19T01:36:45.898Z,90.2
2018-02-19T01:37:48.166Z,90.3
2018-02-19T01:38:50.657Z,90.3
2018-02-19T01:39:52.571Z,90.6
2018-02-19T01:40:54.440Z,90.4
2018-02-19T01:41:56.334Z,90.3
2018-02-19T01:42:58.487Z,89.5
2018-02-19T01:44:00.365Z,89.8
2018-02-19T01:45:02.166Z,89.4
2018-02-19T01:46:04.087Z,90.1
2018-02-19T01:47:05.893Z,89.6
2018-02-19T01:48:08.197Z,90.0
2018-02-19T01:49:10.120Z,90.1
2018-02-19T01:50:12.342Z,90.0
2018-02-19T01:51:14.484Z,90.6
2018-02-19T01:52:16.394Z,90.5
2018-02-19T01:53:18.250Z,90.5
2018-02-19T01:54:20.471Z,91.0
2018-02-19T01:55:22.307Z,91.0
2018-02-19T01:56:24.525Z,90.6
2018-02-19T01:57:26.688Z,90.5
2018-02-19T01:58:28.483Z,90.4
2018-02-19T01:59:30.570Z,90.2
2018-02-19T02:00:32.819Z,90.0
2018-02-19T02:01:34.753Z,90.5
2018-02-19T02:02:36.592Z,91.5
2018-02-19T02:03:38.494Z,91.6
2018-02-19T02:04:40.675Z,91.8
2018-02-19T02:05:42.870Z,92.3
2018-02-19T02:06:44.774Z,92.5
2018-02-19T02:07:46.915Z,92.9
2018-02-19T02:08:49.181Z,92.9
2018-02-19T02:09:51.308Z,93.2
2018-02-19T02:10:53.542Z,93.6
2018-02-19T02:11:55.739Z,93.4
2018-02-19T02:12:58.009Z,93.4
2018-02-19T02:14:00.273Z,93.6
2018-02-19T02:15:02.383Z,93.0
2018-02-19T02:16:04.621Z,93.0
2018-02-19T02:17:06.908Z,92.7
2018-02-19T02:18:09.350Z,92.4
2018-02-19T02:19:11.191Z,92.0
2018-02-19T02:20:13.462Z,92.0
2018-02-19T02:21:15.358Z,92.8
2018-02-19T02:22:17.598Z,92.9
2018-02-19T02:23:19.820Z,92.9
2018-02-19T02:24:22.092Z,92.0
2018-02-19T02:25:24.463Z,92.2
2018-02-19T02:26:26.688Z,92.4
2018-02-19T02:27:28.678Z,92.8
2018-02-19T02:28:30.474Z,93.0
2018-02-19T02:29:32.392Z,93.3
2018-02-19T02:30:34.709Z,93.4
2018-02-19T02:31:36.933Z,92.9
2018-02-19T02:32:39.115Z,93.1
2018-02-19T02:33:41.404Z,92.9
2018-02-19T02:34:43.243Z,93.4
2018-02-19T02:35:45.130Z,93.3
2018-02-19T02:36:47.026Z,93.4
2018-02-19T02:37:48.841Z,93.4
2018-02-19T02:38:50.744Z,93.3
2018-02-19T02:39:52.927Z,92.9
2018-02-19T02:40:55.227Z,93.1
2018-02-19T02:41:57.209Z,93.1
2018-02-19T02:42:58.998Z,93.1
2018-02-19T02:44:00.955Z,93.2
2018-02-19T02:45:02.796Z,93.4
2018-02-19T02:46:04.719Z,93.1
2018-02-19T02:47:06.861Z,93.0
2018-02-19T02:48:08.801Z,91.7
2018-02-19T02:49:10.755Z,92.2
2018-02-19T02:50:12.632Z,92.0
2018-02-19T02:51:14.951Z,92.0
2018-02-19T02:52:16.864Z,93.0
2018-02-19T02:53:18.612Z,93.0
2018-02-19T02:54:20.425Z,92.9
2018-02-19T02:55:22.193Z,92.2
2018-02-19T02:56:24.066Z,92.7
2018-02-19T02:57:25.847Z,92.9
2018-02-19T02:58:27.677Z,92.9
2018-02-19T02:59:29.679Z,93.5
2018-02-19T03:00:31.417Z,93.0
2018-02-19T03:01:33.762Z,93.2
2018-02-19T03:02:35.642Z,93.4
2018-02-19T03:03:37.639Z,93.1
2018-02-19T03:04:39.987Z,93.3
2018-02-19T03:05:41.767Z,94.2
2018-02-19T03:06:43.547Z,94.3
2018-02-19T03:07:45.362Z,93.4
2018-02-19T03:08:47.705Z,94.0
2018-02-19T03:09:49.589Z,94.2
2018-02-19T03:10:51.490Z,94.3
2018-02-19T03:11:53.332Z,93.4
2018-02-19T03:12:55.079Z,94.7
2018-02-19T03:13:56.828Z,94.1
2018-02-19T03:14:58.580Z,93.8
2018-02-19T03:16:00.477Z,93.6
2018-02-19T03:17:02.421Z,93.7
2018-02-19T03:18:04.304Z,93.4
2018-02-19T03:19:06.524Z,93.6
2018-02-19T03:20:08.785Z,94.5
2018-02-19T03:21:10.997Z,93.7
2018-02-19T03:22:12.764Z,93.8
2018-02-19T03:23:14.620Z,93.5
2018-02-19T03:24:16.513Z,93.1
2018-02-19T03:25:18.325Z,93.3
2018-02-19T03:26:20.221Z,93.2
2018-02-19T03:27:22.041Z,92.8
2018-02-19T03:28:23.778Z,92.9
2018-02-19T03:29:25.801Z,93.0
2018-02-19T03:30:28.106Z,92.5
2018-02-19T03:31:30.362Z,92.2
2018-02-19T03:32:32.520Z,91.8
2018-02-19T03:33:34.327Z,91.8
2018-02-19T03:34:36.049Z,91.8
2018-02-19T03:35:37.935Z,92.0
2018-02-19T03:36:40.182Z,92.1
2018-02-19T03:37:42.574Z,92.0
2018-02-19T03:38:44.426Z,92.0
2018-02-19T03:39:46.411Z,92.0
2018-02-19T03:40:48.212Z,92.1
2018-02-19T03:41:50.148Z,92.0
2018-02-19T03:42:51.936Z,91.7
2018-02-19T03:43:53.831Z,91.5
2018-02-19T03:44:55.624Z,91.1
2018-02-19T03:45:57.456Z,90.7
2018-02-19T03:46:59.404Z,91.4
2018-02-19T03:48:01.580Z,91.3
2018-02-19T03:49:03.873Z,91.1
2018-02-19T03:50:06.154Z,91.3
2018-02-19T03:51:08.025Z,91.4
2018-02-19T03:52:09.922Z,91.2
2018-02-19T03:53:12.192Z,90.9
2018-02-19T03:54:14.538Z,91.4
2018-02-19T03:55:16.664Z,91.1
2018-02-19T03:56:18.994Z,91.1
2018-02-19T03:57:20.898Z,90.4
2018-02-19T03:58:22.650Z,90.4
2018-02-19T03:59:24.425Z,90.1
2018-02-19T04:00:26.290Z,91.0
2018-02-19T04:01:28.353Z,90.5
2018-02-19T04:02:30.687Z,90.5
2018-02-19T04:03:32.565Z,90.7
2018-02-19T04:04:34.388Z,90.5
2018-02-19T04:05:36.210Z,90.4
2018-02-19T04:06:38.490Z,90.8
2018-02-19T04:07:40.748Z,91.4
2018-02-19T04:08:43.035Z,90.9
2018-02-19T04:09:45.304Z,90.5
2018-02-19T04:10:47.257Z,91.1
2018-02-19T04:11:49.666Z,91.2
2018-02-19T04:12:51.432Z,91.1
2018-02-19T04:13:53.223Z,91.1
2018-02-19T04:14:55.482Z,90.7
2018-02-19T04:15:57.753Z,91.4
2018-02-19T04:16:59.592Z,91.1
2018-02-19T04:18:01.656Z,90.4
2018-02-19T04:19:03.706Z,91.1
2018-02-19T04:20:05.620Z,91.5
2018-02-19T04:21:07.941Z,91.1
2018-02-19T04:22:10.290Z,91.9
2018-02-19T04:23:12.581Z,92.0
2018-02-19T04:24:14.904Z,92.0
2018-02-19T04:25:17.278Z,91.7
2018-02-19T04:26:19.672Z,91.1
2018-02-19T04:27:21.917Z,91.3
2018-02-19T04:28:24.219Z,91.1
2018-02-19T04:29:26.220Z,91.3
2018-02-19T04:30:28.118Z,91.4
2018-02-19T04:31:30.073Z,91.4
2018-02-19T04:32:32.093Z,91.6
2018-02-19T04:33:34.011Z,92.0
2018-02-19T04:34:36.329Z,91.3
2018-02-19T04:35:38.739Z,91.4
2018-02-19T04:36:41.252Z,92.0
2018-02-19T04:37:43.573Z,91.3
2018-02-19T04:38:45.347Z,91.8
2018-02-19T04:39:47.361Z,92.9
2018-02-19T04:40:49.705Z,92.9
2018-02-19T04:41:51.966Z,92.9
2018-02-19T04:42:54.050Z,92.5
2018-02-19T04:43:56.211Z,92.1
2018-02-19T04:44:58.506Z,92.3
2018-02-19T04:46:00.686Z,91.6
2018-02-19T04:47:03.016Z,92.0
2018-02-19T04:48:04.919Z,92.0
2018-02-19T04:49:06.710Z,91.8
2018-02-19T04:50:08.481Z,91.8
2018-02-19T04:51:10.269Z,92.7
2018-02-19T04:52:12.236Z,92.8
2018-02-19T04:53:14.344Z,92.4
2018-02-19T04:54:16.271Z,92.0
2018-02-19T04:55:18.579Z,91.5
2018-02-19T04:56:20.963Z,91.5
2018-02-19T04:57:22.780Z,91.1
2018-02-19T04:58:25.116Z,91.7
2018-02-19T04:59:27.500Z,92.1
2018-02-19T05:00:29.530Z,91.9
2018-02-19T05:01:31.364Z,92.2
2018-02-19T05:02:33.341Z,91.5
2018-02-19T05:03:35.293Z,91.3
2018-02-19T05:04:37.069Z,91.4
2018-02-19T05:05:38.862Z,91.4
2018-02-19T05:06:40.933Z,91.3
2018-02-19T05:07:42.924Z,91.7
2018-02-19T05:08:44.700Z,91.6
2018-02-19T05:09:47.209Z,91.7
2018-02-19T05:10:49.039Z,91.4
2018-02-19T05:11:50.842Z,91.0
2018-02-19T05:12:52.649Z,90.3
2018-02-19T05:13:54.607Z,91.3
2018-02-19T05:14:56.435Z,91.3
2018-02-19T05:15:58.557Z,90.6
2018-02-19T05:17:00.331Z,90.0
2018-02-19T05:18:02.089Z,90.4
2018-02-19T05:19:03.994Z,90.0
2018-02-19T05:20:05.747Z,90.6
2018-02-19T05:21:07.490Z,91.1
2018-02-19T05:22:09.689Z,91.2
2018-02-19T05:23:12.005Z,90.5
2018-02-19T05:24:13.726Z,90.4
2018-02-19T05:25:15.530Z,90.5
2018-02-19T05:26:17.379Z,89.8
2018-02-19T05:27:19.233Z,89.5
2018-02-19T05:28:21.883Z,89.7
2018-02-19T05:29:24.277Z,90.3
2018-02-19T05:30:27.386Z,90.0
2018-02-19T05:31:29.106Z,90.0
2018-02-19T05:32:31.216Z,89.7
2018-02-19T05:33:33.808Z,89.0
2018-02-19T05:34:35.902Z,89.9
2018-02-19T05:35:38.367Z,89.6
2018-02-19T05:36:40.800Z,90.3
2018-02-19T05:37:42.922Z,90.4
2018-02-19T05:38:45.250Z,90.6
2018-02-19T05:39:50.083Z,90.8
2018-02-19T05:40:52.258Z,91.0
2018-02-19T05:41:53.972Z,91.8
2018-02-19T05:42:57.202Z,91.6
2018-02-19T05:43:59.159Z,91.5
2018-02-19T05:45:00.854Z,91.3
2018-02-19T05:46:02.622Z,91.1
2018-02-19T05:47:08.051Z,91.3
2018-02-19T05:48:10.407Z,91.1
2018-02-19T05:49:12.164Z,91.5
2018-02-19T05:50:13.882Z,91.0
2018-02-19T05:51:16.311Z,90.4
2018-02-19T05:52:18.074Z,90.1
2018-02-19T05:53:20.413Z,90.5
2018-02-19T05:54:22.531Z,90.8
2018-02-19T05:55:24.457Z,90.2
2018-02-19T05:56:26.245Z,89.3
2018-02-19T05:57:28.265Z,90.3
2018-02-19T05:58:30.042Z,90.4
2018-02-19T05:59:32.093Z,89.6
2018-02-19T06:00:34.297Z,90.0
2018-02-19T06:01:36.803Z,90.4
2018-02-19T06:02:38.453Z,90.4
2018-02-19T06:03:40.388Z,90.1
2018-02-19T06:04:42.380Z,90.2
2018-02-19T06:05:44.168Z,90.0
2018-02-19T06:06:45.964Z,90.3
2018-02-19T06:07:47.673Z,90.0
2018-02-19T06:08:49.795Z,89.6
2018-02-19T06:09:51.527Z,89.6
2018-02-19T06:10:53.255Z,90.3
2018-02-19T06:11:55.024Z,89.4
2018-02-19T06:12:56.733Z,88.6
2018-02-19T06:13:58.494Z,89.7
2018-02-19T06:15:00.328Z,90.4
2018-02-19T06:16:02.010Z,90.4
2018-02-19T06:17:04.637Z,90.6
2018-02-19T06:18:06.808Z,90.5
2018-02-19T06:19:08.497Z,91.5
2018-02-19T06:20:10.164Z,91.3
2018-02-19T06:21:12.181Z,91.2
2018-02-19T06:22:14.970Z,91.3
2018-02-19T06:23:21.088Z,91.2
2018-02-19T06:24:25.826Z,91.6
2018-02-19T06:25:30.519Z,92.1
2018-02-19T06:26:36.332Z,91.1
2018-02-19T06:27:39.304Z,91.3
2018-02-19T06:28:41.097Z,91.1
2018-02-19T06:29:42.981Z,91.6
2018-02-19T06:30:44.683Z,91.2
2018-02-19T06:31:55.412Z,91.1
2018-02-19T06:32:59.331Z,91.3
2018-02-19T06:34:03.366Z,91.0
2018-02-19T06:35:05.117Z,90.7
2018-02-19T06:36:07.224Z,90.5
2018-02-19T06:37:09.852Z,90.7
2018-02-19T06:38:11.995Z,91.1
2018-02-19T06:39:14.334Z,90.3
2018-02-19T06:40:16.397Z,89.7
2018-02-19T06:41:18.108Z,89.5
2018-02-19T06:42:20.633Z,89.3
2018-02-19T06:43:23.361Z,89.6
2018-02-19T06:44:25.635Z,89.4
2018-02-19T06:45:27.655Z,89.8
2018-02-19T06:46:29.407Z,89.5
2018-02-19T06:47:31.535Z,89.3
2018-02-19T06:48:33.436Z,88.7
2018-02-19T06:49:35.148Z,88.4
2018-02-19T06:50:36.997Z,88.9
2018-02-19T06:51:39.085Z,89.2
2018-02-19T06:52:40.890Z,89.1
2018-02-19T06:53:42.727Z,89.1
2018-02-19T06:54:45.227Z,89.3
2018-02-19T06:55:47.012Z,89.2
2018-02-19T06:56:49.117Z,89.2
2018-02-19T06:57:54.226Z,89.2
2018-02-19T06:58:55.928Z,88.3
2018-02-19T06:59:57.723Z,89.2
2018-02-19T07:00:59.509Z,88.7
2018-02-19T07:02:01.259Z,88.7
2018-02-19T07:03:02.998Z,88.8
2018-02-19T07:04:04.751Z,88.2
2018-02-19T07:05:09.088Z,87.9
2018-02-19T07:06:14.164Z,87.9
2018-02-19T07:07:16.064Z,87.5
2018-02-19T07:08:18.179Z,87.7
2018-02-19T07:09:20.287Z,88.0
2018-02-19T07:10:24.508Z,87.1
2018-02-19T07:11:26.380Z,87.6
2018-02-19T07:12:34.080Z,87.4
2018-02-19T07:13:36.383Z,87.7
2018-02-19T07:14:38.247Z,87.8
2018-02-19T07:15:40.103Z,88.0
2018-02-19T07:16:42.565Z,88.2
2018-02-19T07:17:48.994Z,88.7
2018-02-19T07:18:51.049Z,89.3
2018-02-19T07:19:52.896Z,89.2
2018-02-19T07:20:55.470Z,89.4
2018-02-19T07:21:58.174Z,89.5
2018-02-19T07:23:01.059Z,89.0
2018-02-19T07:24:03.913Z,88.3
2018-02-19T07:25:06.265Z,88.0
2018-02-19T07:26:08.312Z,87.7
2018-02-19T07:27:10.773Z,88.7
2018-02-19T07:28:13.323Z,88.9
2018-02-19T07:29:16.302Z,88.9
2018-02-19T07:30:22.933Z,89.3
2018-02-19T07:31:24.630Z,89.0
2018-02-19T07:32:26.356Z,88.8
2018-02-19T07:33:35.565Z,88.4
2018-02-19T07:34:38.026Z,89.1
2018-02-19T07:35:43.981Z,88.7
2018-02-19T07:36:45.786Z,89.3
2018-02-19T07:37:53.406Z,89.2
2018-02-19T07:38:55.887Z,89.4
2018-02-19T07:39:58.280Z,89.0
2018-02-19T07:41:00.161Z,88.5
2018-02-19T07:42:05.576Z,89.1
2018-02-19T07:43:09.604Z,88.9
2018-02-19T07:44:11.804Z,88.6
2018-02-19T07:45:18.408Z,89.0
2018-02-19T07:46:20.183Z,88.7
2018-02-19T07:47:22.161Z,88.9
2018-02-19T07:48:23.976Z,89.3
2018-02-19T07:49:25.856Z,88.6
2018-02-19T07:50:28.416Z,88.8
2018-02-19T07:51:30.425Z,87.9
2018-02-19T07:52:32.293Z,87.2
2018-02-19T07:53:34.038Z,88.1
2018-02-19T07:54:40.738Z,87.4
2018-02-19T07:55:42.710Z,87.9
2018-02-19T07:56:44.505Z,88.5
2018-02-19T07:57:46.416Z,88.1
2018-02-19T07:58:48.252Z,88.8
2018-02-19T07:59:50.785Z,88.6
2018-02-19T08:00:53.374Z,88.3
2018-02-19T08:02:02.949Z,88.7
2018-02-19T08:03:10.068Z,88.3
2018-02-19T08:04:11.860Z,88.4
2018-02-19T08:05:14.276Z,87.9
2018-02-19T08:06:16.300Z,87.9
2018-02-19T08:07:18.890Z,87.9
2018-02-19T08:08:33.465Z,88.0
2018-02-19T08:09:35.050Z,87.9
2018-02-19T08:10:37.772Z,88.3
2018-02-19T08:11:39.902Z,87.7
2018-02-19T08:12:48.614Z,88.3
2018-02-19T08:13:50.271Z,88.4
2018-02-19T08:14:52.078Z,88.5
2018-02-19T08:15:53.926Z,88.4
2018-02-19T08:16:57.001Z,88.3
2018-02-19T08:17:58.778Z,88.3
2018-02-19T08:19:01.719Z,88.1
2018-02-19T08:20:04.115Z,88.4
2018-02-19T08:21:13.421Z,88.5
2018-02-19T08:22:23.260Z,88.4
2018-02-19T08:23:28.201Z,88.6
2018-02-19T08:24:29.898Z,88.8
2018-02-19T08:25:32.508Z,88.5
2018-02-19T08:26:42.851Z,88.6
2018-02-19T08:27:44.363Z,88.4
2018-02-19T08:28:46.799Z,88.1
2018-02-19T08:29:48.876Z,87.9
2018-02-19T08:30:50.650Z,87.9
2018-02-19T08:31:52.455Z,87.8
2018-02-19T08:32:54.219Z,88.1
2018-02-19T08:34:03.593Z,87.2
2018-02-19T08:35:05.453Z,87.4
2018-02-19T08:36:07.558Z,88.1
2018-02-19T08:37:09.445Z,87.8
2018-02-19T08:38:14.923Z,87.6
2018-02-19T08:39:21.826Z,87.6
2018-02-19T08:40:23.746Z,87.0
2018-02-19T08:41:25.601Z,86.8
2018-02-19T08:42:27.906Z,86.4
2018-02-19T08:43:30.372Z,86.2
2018-02-19T08:44:35.176Z,86.7
2018-02-19T08:45:37.878Z,87.1
2018-02-19T08:46:40.471Z,86.8
2018-02-19T08:47:47.030Z,87.3
2018-02-19T08:48:55.693Z,87.2
2018-02-19T08:50:01.484Z,86.6
2018-02-19T08:51:03.715Z,86.5
2018-02-19T08:52:05.866Z,86.3
2018-02-19T08:53:08.340Z,85.3
2018-02-19T08:54:10.726Z,85.9
2018-02-19T08:55:12.459Z,85.8
2018-02-19T08:56:14.757Z,85.7
2018-02-19T08:57:16.506Z,86.2
2018-02-19T08:58:18.900Z,85.8
2018-02-19T08:59:21.055Z,86.6
2018-02-19T09:00:23.157Z,85.8
2018-02-19T09:01:24.904Z,86.0
2018-02-19T09:02:27.260Z,85.9
2018-02-19T09:03:29.466Z,86.6
2018-02-19T09:04:31.615Z,85.6
2018-02-19T09:05:33.868Z,85.5
2018-02-19T09:06:35.888Z,85.0
2018-02-19T09:07:37.635Z,84.7
2018-02-19T09:08:40.017Z,85.4
2018-02-19T09:09:42.534Z,85.5
2018-02-19T09:10:44.951Z,85.1
2018-02-19T09:11:50.423Z,85.4
2018-02-19T09:12:52.282Z,85.1
2018-02-19T09:13:54.975Z,85.1
2018-02-19T09:14:57.382Z,84.9
2018-02-19T09:15:59.392Z,85.0
2018-02-19T09:17:02.874Z,84.9
2018-02-19T09:18:05.291Z,84.5
2018-02-19T09:19:10.854Z,84.5
2018-02-19T09:20:12.934Z,84.6
2018-02-19T09:21:21.704Z,84.7
2018-02-19T09:22:28.907Z,84.7
2018-02-19T09:23:35.025Z,84.5
2018-02-19T09:24:36.893Z,84.6
2018-02-19T09:25:39.124Z,84.3
2018-02-19T09:26:41.409Z,84.7
2018-02-19T09:27:43.755Z,84.8
2018-02-19T09:28:45.955Z,84.5
2018-02-19T09:29:52.436Z,84.2
2018-02-19T09:30:58.950Z,84.7
2018-02-19T09:32:00.423Z,84.5
2018-02-19T09:33:02.224Z,83.6
2018-02-19T09:34:03.938Z,83.3
2018-02-19T09:35:06.033Z,82.3
2018-02-19T09:36:07.816Z,82.5
2018-02-19T09:37:09.595Z,82.2
2018-02-19T09:38:13.792Z,81.8
2018-02-19T09:39:16.139Z,81.1
2018-02-19T09:40:17.882Z,81.9
2018-02-19T09:41:19.687Z,82.1
2018-02-19T09:42:22.006Z,81.8
2018-02-19T09:46:57.518Z,81.5
2018-02-19T09:49:11.547Z,81.3
2018-02-19T09:50:13.213Z,81.0
2018-02-19T09:51:15.312Z,80.7
2018-02-19T09:52:17.343Z,80.9
2018-02-19T09:53:19.234Z,81.0
2018-02-19T09:54:21.598Z,81.3
2018-02-19T09:55:23.651Z,81.3
2018-02-19T09:56:28.571Z,81.0
2018-02-19T09:57:31.249Z,80.8
2018-02-19T09:58:33.512Z,80.6
2018-02-19T09:59:35.151Z,81.3
2018-02-19T10:00:37.372Z,80.7
2018-02-19T10:01:39.758Z,80.7
2018-02-19T10:02:42.108Z,81.0
2018-02-19T10:03:44.234Z,80.3
2018-02-19T10:04:47.313Z,79.8
2018-02-19T10:05:49.332Z,79.6
2018-02-19T10:06:51.041Z,80.1
2018-02-19T10:07:52.795Z,80.3
2018-02-19T10:08:54.603Z,80.8
2018-02-19T10:09:57.063Z,80.4
2018-02-19T10:11:00.821Z,80.4
2018-02-19T10:12:04.694Z,80.4
2018-02-19T10:13:06.411Z,80.2
2018-02-19T10:14:08.203Z,80.6
2018-02-19T10:15:09.972Z,79.7
2018-02-19T10:16:11.825Z,79.7
2018-02-19T10:17:13.670Z,79.6
2018-02-19T10:18:15.985Z,79.1
2018-02-19T10:19:18.019Z,79.2
2018-02-19T10:20:20.136Z,79.2
2018-02-19T10:21:22.224Z,79.3
2018-02-19T10:22:24.270Z,79.1
2018-02-19T10:23:26.437Z,79.1
2018-02-19T10:24:28.555Z,79.4
2018-02-19T10:25:31.148Z,80.0
2018-02-19T10:26:33.274Z,79.6
2018-02-19T10:27:35.339Z,79.4
2018-02-19T10:28:37.232Z,79.6
2018-02-19T10:29:39.609Z,79.8
2018-02-19T10:30:41.460Z,79.9
2018-02-19T10:31:43.751Z,79.2
2018-02-19T10:32:46.005Z,78.5
2018-02-19T10:33:52.072Z,78.4
2018-02-19T10:34:54.172Z,78.6
2018-02-19T10:35:58.206Z,79.4
2018-02-19T10:37:00.488Z,79.2
2018-02-19T10:38:02.981Z,79.2
2018-02-19T10:39:05.272Z,78.2
2018-02-19T10:40:08.022Z,77.9
2018-02-19T10:41:12.538Z,77.8
2018-02-19T10:42:14.440Z,77.8
2018-02-19T10:43:16.478Z,78.1
2018-02-19T10:44:21.490Z,78.0
2018-02-19T10:45:23.823Z,77.9
2018-02-19T10:46:27.031Z,78.7
2018-02-19T10:47:31.792Z,79.0
2018-02-19T10:48:35.604Z,79.1
2018-02-19T10:49:38.906Z,79.2
2018-02-19T10:50:41.155Z,79.2
2018-02-19T10:51:43.098Z,79.2
2018-02-19T10:52:45.608Z,78.7
2018-02-19T10:53:47.408Z,78.6
2018-02-19T10:54:59.079Z,78.6
2018-02-19T10:56:03.757Z,79.2
2018-02-19T10:57:05.709Z,79.1
2018-02-19T10:58:07.831Z,78.9
2018-02-19T10:59:10.281Z,79.3
2018-02-19T11:00:12.285Z,78.9
2018-02-19T11:01:14.010Z,79.2
2018-02-19T11:02:16.452Z,79.6
2018-02-19T11:03:18.256Z,79.3
2018-02-19T11:04:22.961Z,79.2
2018-02-19T11:05:24.751Z,78.6
2018-02-19T11:06:26.494Z,77.8
2018-02-19T11:07:28.579Z,77.6
2018-02-19T11:08:31.995Z,77.1
2018-02-19T11:09:34.828Z,76.5
2018-02-19T11:10:37.663Z,76.2
2018-02-19T11:11:39.476Z,75.8
2018-02-19T11:12:41.944Z,75.3
2018-02-19T11:13:46.810Z,75.9
2018-02-19T11:14:48.557Z,75.8
2018-02-19T11:15:50.268Z,76.0
2018-02-19T11:16:53.853Z,75.7
2018-02-19T11:17:56.061Z,75.7
2018-02-19T11:19:00.137Z,76.7
2018-02-19T11:20:02.223Z,77.1
2018-02-19T11:21:03.900Z,77.3
2018-02-19T11:22:06.132Z,77.1
2018-02-19T11:23:07.950Z,76.6
2018-02-19T11:24:13.043Z,75.6
2018-02-19T11:25:15.072Z,74.4
2018-02-19T11:26:16.830Z,74.2
2018-02-19T11:27:18.755Z,74.1
2018-02-19T11:28:21.108Z,74.2
2018-02-19T11:29:23.399Z,74.6
2018-02-19T11:30:25.746Z,75.8
2018-02-19T11:31:27.844Z,75.1
2018-02-19T11:32:30.102Z,75.4
2018-02-19T11:33:31.866Z,75.8
2018-02-19T11:34:33.581Z,75.7
2018-02-19T11:35:35.890Z,76.2
2018-02-19T11:36:37.653Z,76.3
2018-02-19T11:37:39.429Z,75.9
2018-02-19T11:38:41.720Z,76.0
2018-02-19T11:39:43.487Z,75.6
2018-02-19T11:40:48.214Z,74.6
2018-02-19T11:41:50.382Z,73.6
2018-02-19T11:42:52.534Z,73.6
2018-02-19T11:43:55.121Z,73.4
2018-02-19T11:45:01.918Z,74.2
2018-02-19T11:46:03.829Z,74.2
2018-02-19T11:47:07.470Z,74.8
2018-02-19T11:48:11.012Z,75.1
2018-02-19T11:49:14.932Z,75.2
2018-02-19T11:50:18.617Z,75.0
2018-02-19T11:51:24.924Z,74.9
2018-02-19T11:52:27.183Z,75.3
2018-02-19T11:53:29.387Z,75.4
2018-02-19T11:54:31.674Z,75.1
2018-02-19T11:55:33.738Z,74.8
2018-02-19T11:56:35.484Z,75.5
2018-02-19T11:57:37.279Z,75.6
2018-02-19T11:58:39.589Z,75.7
2018-02-19T11:59:44.261Z,75.1
2018-02-19T12:00:46.207Z,74.5
2018-02-19T12:01:49.364Z,74.5
2018-02-19T12:02:51.464Z,74.8
2018-02-19T12:03:53.553Z,74.8
2018-02-19T12:04:56.002Z,74.8
2018-02-19T12:05:58.090Z,73.6
2018-02-19T12:07:02.644Z,73.0
2018-02-19T12:08:04.255Z,72.2
2018-02-19T12:09:06.000Z,71.5
2018-02-19T12:10:08.446Z,71.1
2018-02-19T12:11:10.183Z,71.3
2018-02-19T12:12:11.883Z,72.2
2018-02-19T12:13:13.623Z,73.2
2018-02-19T12:14:15.691Z,73.4
2018-02-19T12:15:18.093Z,73.7
2018-02-19T12:16:20.160Z,73.9
2018-02-19T12:17:21.840Z,73.9
2018-02-19T12:18:23.626Z,74.1
2018-02-19T12:19:26.489Z,73.6
2018-02-19T12:20:30.957Z,72.4
2018-02-19T12:21:32.975Z,71.9
2018-02-19T12:22:34.709Z,71.1
2018-02-19T12:23:36.501Z,71.4
2018-02-19T12:24:38.419Z,72.1
2018-02-19T12:25:40.125Z,72.3
2018-02-19T12:26:42.444Z,72.0
2018-02-19T12:27:44.804Z,71.6
2018-02-19T12:28:48.812Z,70.9
2018-02-19T12:29:52.544Z,71.0
2018-02-19T12:30:55.024Z,71.4
2018-02-19T12:31:58.395Z,71.6
2018-02-19T12:33:01.775Z,71.6
2018-02-19T12:34:03.980Z,71.3
2018-02-19T12:35:06.221Z,70.7
2018-02-19T12:36:08.438Z,69.9
2018-02-19T12:37:10.501Z,69.5
2018-02-19T12:38:12.808Z,69.3
2018-02-19T12:39:15.188Z,69.3
2018-02-19T12:40:16.902Z,69.3
2018-02-19T12:41:20.773Z,69.3
2018-02-19T12:42:22.753Z,68.5
2018-02-19T12:43:24.890Z,68.0
2018-02-19T12:44:26.564Z,67.1
2018-02-19T12:45:28.312Z,65.8
2018-02-19T12:46:30.028Z,64.3
2018-02-19T12:47:33.590Z,64.1
2018-02-19T12:48:36.752Z,64.0
2018-02-19T12:49:41.576Z,64.4
2018-02-19T12:50:43.466Z,64.1
2018-02-19T12:51:47.720Z,64.5
2018-02-19T12:52:49.866Z,65.1
2018-02-19T12:53:51.882Z,64.4
2018-02-19T12:54:54.195Z,63.5
2018-02-19T12:55:56.290Z,63.3
2018-02-19T12:56:57.947Z,64.0
2018-02-19T12:57:59.720Z,63.5
2018-02-19T12:59:01.810Z,65.4
2018-02-19T13:00:05.318Z,65.6
2018-02-19T13:01:08.161Z,64.9
2018-02-19T13:02:09.885Z,64.2
2018-02-19T13:03:12.888Z,63.7
2018-02-19T13:04:15.072Z,63.2
2018-02-19T13:05:17.115Z,64.3
2018-02-19T13:06:18.833Z,64.3
2018-02-19T13:07:20.591Z,63.6
2018-02-19T13:08:22.926Z,62.7
2018-02-19T13:09:25.052Z,60.8
2018-02-19T13:10:27.187Z,60.8
2018-02-19T13:11:29.328Z,61.2
2018-02-19T13:12:31.056Z,62.2
2018-02-19T13:13:34.489Z,63.9
2018-02-19T13:14:36.234Z,65.5
2018-02-19T13:15:38.428Z,65.6
2018-02-19T13:16:40.118Z,66.1
2018-02-19T13:17:41.818Z,66.7
2018-02-19T13:18:43.582Z,67.0
2018-02-19T13:19:45.380Z,66.8
2018-02-19T13:20:47.634Z,67.7
2018-02-19T13:21:50.284Z,67.5
2018-02-19T13:22:51.962Z,68.0
2018-02-19T13:23:55.262Z,67.5
2018-02-19T13:24:57.558Z,67.2
2018-02-19T13:25:59.304Z,66.8
2018-02-19T13:27:01.478Z,65.7
2018-02-19T13:28:05.646Z,64.9
2018-02-19T13:29:07.615Z,64.8
2018-02-19T13:30:09.364Z,64.8
2018-02-19T13:31:11.078Z,64.3
2018-02-19T13:32:12.833Z,63.3
2018-02-19T13:33:14.764Z,63.4
2018-02-19T13:34:16.924Z,63.4
2018-02-19T13:35:18.883Z,63.9
2018-02-19T13:36:20.574Z,63.5
2018-02-19T13:37:22.269Z,63.2
2018-02-19T13:38:23.972Z,63.8
2018-02-19T13:39:25.643Z,64.1
2018-02-19T13:40:27.383Z,63.9
2018-02-19T13:41:29.091Z,64.3
2018-02-19T13:42:30.757Z,65.4
2018-02-19T13:43:32.450Z,64.9
2018-02-19T13:44:34.100Z,64.5
2018-02-19T13:45:35.824Z,65.3
2018-02-19T13:46:37.570Z,64.6
2018-02-19T13:47:39.298Z,64.6
2018-02-19T13:48:40.962Z,64.5
2018-02-19T13:49:42.679Z,64.0
2018-02-19T13:50:44.369Z,64.8
2018-02-19T13:51:46.063Z,64.3
2018-02-19T13:52:47.833Z,64.7
2018-02-19T13:53:49.474Z,65.4
2018-02-19T13:54:51.231Z,65.3
2018-02-19T13:55:52.901Z,65.1